Aérodrome :
LOGIN :

S'inscrire | Disclaimer

   EN    FR    IT 

 










Légende :    VFR   VFR Marginal   IFR   IFR Intensif   IFR Très Intensif
Visi : 
Plafond : 
>= 8 km
>= 3000ft
5 à 8 km
1000 à 3000 ft
1500m à 5 km
500 à 1000 ft
800 à 1500m
200 à 500 ft
< 800m
< 200 ft
Symboles :   Orages  Brouillard  Fortes neiges  Fortes précipitations  Vent > 20 kt
SIGMETs :   Divers  Orages  Givrage  Turbulence  Onde Orograph.  Cendres Volcan.






- Altitude de l'aérodrome : 474 ft
- Code IATA : HFS


ESOH - Hagfors

DERNIER METAR :
  • 071020Z AUTO 20014KT 160V240 9999 SCT032/// BKN066/// BKN140/// 15/08 Q1002 RERA

METARs EXPIRÉS :
  • 070950Z AUTO 18013KT 9999 BKN031/// BKN066/// 13/08 Q1002
  • 070920Z AUTO 20010KT 170V250 9999 -SHRA FEW024/// SCT036/// BKN064/// 12/08 Q1001 RERA
  • 070850Z AUTO 19013KT 9999 -RA SCT027/// BKN036/// OVC051/// 12/07 Q1001 RERA
  • 070820Z AUTO 19013KT 150V210 9999 SCT031/// BKN037/// OVC059/// 12/07 Q1001
  • 070750Z AUTO 20013KT 160V220 9999 FEW031/// SCT039/// OVC053/// 12/07 Q1000
  • 070720Z AUTO 21012KT 170V240 9999 SCT034/// OVC046/// 12/06 Q1000

TAF N/A



MET'MAP, la Météo Aéronautique d'un coup d'oeil ! - Copyright ORBIFLY Décembre 2007 - Disclaimer

ORBIFLY MET'MAP TEAM :

Programmation & Développement : Alexandra Zaïnal
Sur une idée originale de : Baudouin d'Aumeries
Assistance à la programmation : Marc-Olivier Méhu
Soutien technique & logistique : Manuel Goepfert

Contact : metmap@orbifly.com




SOURCES & CREDITS :

   NOAA